sensor_id;sensor_type;location;lat;lon;timestamp;pressure;altitude;pressure_sealevel;temperature;humidity
63027;BME280;59113;51.434;-2.004;2022-08-01T07:53:57;101092.41;;;20.20;100.00
63027;BME280;59113;51.434;-2.004;2022-08-01T08:32:42;101097.50;;;20.16;100.00
63027;BME280;59113;51.434;-2.004;2022-08-01T08:35:08;101096.88;;;20.55;100.00
63027;BME280;59113;51.434;-2.004;2022-08-01T08:37:35;101100.75;;;21.09;100.00
63027;BME280;59113;51.434;-2.004;2022-08-01T08:40:03;101101.69;;;21.53;100.00
63027;BME280;59113;51.434;-2.004;2022-08-01T08:42:28;101111.94;;;21.63;100.00
63027;BME280;59113;51.434;-2.004;2022-08-01T08:44:54;101107.59;;;21.67;100.00
63027;BME280;59113;51.434;-2.004;2022-08-01T08:50:49;101099.19;;;21.52;100.00
63027;BME280;59113;51.434;-2.004;2022-08-01T08:53:16;101084.44;;;22.51;100.00
63027;BME280;59113;51.434;-2.004;2022-08-01T08:56:02;101104.19;;;23.22;89.69
63027;BME280;59113;51.434;-2.004;2022-08-01T08:58:28;101094.44;;;23.41;87.22
63027;BME280;59113;51.434;-2.004;2022-08-01T09:00:54;101090.06;;;23.45;85.58
63027;BME280;59113;51.434;-2.004;2022-08-01T09:03:19;101088.72;;;23.48;85.62
63027;BME280;59113;51.434;-2.004;2022-08-01T09:05:49;101082.03;;;23.81;81.95
63027;BME280;59113;51.434;-2.004;2022-08-01T09:08:15;101085.97;;;24.15;84.38
63027;BME280;59113;51.434;-2.004;2022-08-01T09:10:40;101078.81;;;25.26;78.97
63027;BME280;59113;51.434;-2.004;2022-08-01T09:13:09;101080.72;;;26.50;63.16
63027;BME280;59113;51.434;-2.004;2022-08-01T09:15:43;101088.41;;;28.26;51.83
63027;BME280;59113;51.434;-2.004;2022-08-01T09:18:26;101083.31;;;29.86;44.93
63027;BME280;59113;51.434;-2.004;2022-08-01T09:21:15;101083.78;;;30.60;42.13
63027;BME280;59113;51.434;-2.004;2022-08-01T09:23:48;101079.28;;;31.66;38.41
63027;BME280;59113;51.434;-2.004;2022-08-01T09:26:28;101085.09;;;32.30;36.27
63027;BME280;59113;51.434;-2.004;2022-08-01T09:28:55;101073.88;;;33.76;32.74
63027;BME280;59113;51.434;-2.004;2022-08-01T09:31:20;101080.91;;;34.24;32.07
63027;BME280;59113;51.434;-2.004;2022-08-01T09:33:57;101080.59;;;33.75;31.24
63027;BME280;59113;51.434;-2.004;2022-08-01T09:36:25;101078.56;;;33.54;33.03
63027;BME280;59113;51.434;-2.004;2022-08-01T09:38:52;101074.03;;;30.63;34.71
63027;BME280;59113;51.434;-2.004;2022-08-01T09:41:28;101071.88;;;31.53;36.33
63027;BME280;59113;51.434;-2.004;2022-08-01T09:43:55;101064.19;;;31.10;35.57
63027;BME280;59113;51.434;-2.004;2022-08-01T09:46:21;101060.22;;;31.90;34.54
63027;BME280;59113;51.434;-2.004;2022-08-01T09:49:02;101055.34;;;31.96;35.82
63027;BME280;59113;51.434;-2.004;2022-08-01T09:51:38;101055.56;;;31.69;33.80
63027;BME280;59113;51.434;-2.004;2022-08-01T09:54:06;101058.09;;;29.74;36.48
63027;BME280;59113;51.434;-2.004;2022-08-01T09:56:37;101058.03;;;28.91;39.51
63027;BME280;59113;51.434;-2.004;2022-08-01T09:59:03;101059.94;;;29.64;41.20
63027;BME280;59113;51.434;-2.004;2022-08-01T10:01:43;101063.25;;;29.53;41.43
63027;BME280;59113;51.434;-2.004;2022-08-01T10:04:17;101066.13;;;30.11;40.51
63027;BME280;59113;51.434;-2.004;2022-08-01T10:06:45;101062.16;;;29.90;40.74
63027;BME280;59113;51.434;-2.004;2022-08-01T10:09:14;101075.53;;;29.47;41.12
63027;BME280;59113;51.434;-2.004;2022-08-01T10:11:43;101076.38;;;28.54;44.97
63027;BME280;59113;51.434;-2.004;2022-08-01T10:14:09;101072.06;;;28.11;45.38
63027;BME280;59113;51.434;-2.004;2022-08-01T10:16:36;101064.50;;;27.97;47.46
63027;BME280;59113;51.434;-2.004;2022-08-01T10:19:04;101077.28;;;28.31;46.00
63027;BME280;59113;51.434;-2.004;2022-08-01T10:21:32;101076.59;;;28.39;45.77
63027;BME280;59113;51.434;-2.004;2022-08-01T10:23:58;101074.47;;;28.69;45.11
63027;BME280;59113;51.434;-2.004;2022-08-01T10:26:25;101081.00;;;28.21;48.04
63027;BME280;59113;51.434;-2.004;2022-08-01T10:28:52;101078.50;;;29.50;44.76
63027;BME280;59113;51.434;-2.004;2022-08-01T10:31:19;101076.47;;;30.42;41.51
63027;BME280;59113;51.434;-2.004;2022-08-01T10:33:45;101072.19;;;32.34;37.33
63027;BME280;59113;51.434;-2.004;2022-08-01T10:36:10;101067.06;;;33.65;34.63
63027;BME280;59113;51.434;-2.004;2022-08-01T10:38:36;101061.81;;;34.67;31.87
63027;BME280;59113;51.434;-2.004;2022-08-01T10:41:03;101059.88;;;34.05;32.82
63027;BME280;59113;51.434;-2.004;2022-08-01T10:43:29;101050.69;;;32.87;35.06
63027;BME280;59113;51.434;-2.004;2022-08-01T10:45:56;101058.25;;;31.91;37.16
63027;BME280;59113;51.434;-2.004;2022-08-01T10:48:29;101061.53;;;31.84;36.51
63027;BME280;59113;51.434;-2.004;2022-08-01T10:51:02;101059.22;;;30.22;38.86
63027;BME280;59113;51.434;-2.004;2022-08-01T10:53:28;101057.72;;;29.53;42.10
63027;BME280;59113;51.434;-2.004;2022-08-01T10:55:58;101058.78;;;31.05;39.99
63027;BME280;59113;51.434;-2.004;2022-08-01T11:01:32;101048.97;;;30.99;38.79
63027;BME280;59113;51.434;-2.004;2022-08-01T11:04:04;101050.69;;;31.65;39.76
63027;BME280;59113;51.434;-2.004;2022-08-01T11:11:26;101053.53;;;32.09;36.83
63027;BME280;59113;51.434;-2.004;2022-08-01T11:16:33;101057.00;;;30.11;40.80
63027;BME280;59113;51.434;-2.004;2022-08-01T11:18:59;101059.81;;;29.42;43.40
63027;BME280;59113;51.434;-2.004;2022-08-01T11:27:28;101052.44;;;30.29;43.37
63027;BME280;59113;51.434;-2.004;2022-08-01T11:32:48;101048.66;;;29.20;43.32
63027;BME280;59113;51.434;-2.004;2022-08-01T11:35:14;101039.50;;;31.00;42.02
63027;BME280;59113;51.434;-2.004;2022-08-01T11:37:40;101040.16;;;33.01;36.66
63027;BME280;59113;51.434;-2.004;2022-08-01T11:42:43;101045.13;;;34.26;33.69
63027;BME280;59113;51.434;-2.004;2022-08-01T11:45:09;101035.34;;;34.20;33.99
63027;BME280;59113;51.434;-2.004;2022-08-01T11:47:48;101033.00;;;31.61;36.18
63027;BME280;59113;51.434;-2.004;2022-08-01T11:50:33;101030.34;;;33.33;34.76
63027;BME280;59113;51.434;-2.004;2022-08-01T11:53:01;101025.94;;;33.62;34.12
63027;BME280;59113;51.434;-2.004;2022-08-01T11:55:27;101032.06;;;34.84;31.99
63027;BME280;59113;51.434;-2.004;2022-08-01T11:58:07;101019.09;;;35.00;30.38
63027;BME280;59113;51.434;-2.004;2022-08-01T12:00:33;101020.16;;;35.32;31.34
63027;BME280;59113;51.434;-2.004;2022-08-01T12:03:00;101015.38;;;35.45;30.32
63027;BME280;59113;51.434;-2.004;2022-08-01T12:05:28;101013.81;;;36.12;30.48
63027;BME280;59113;51.434;-2.004;2022-08-01T12:07:54;101012.28;;;37.02;27.59
63027;BME280;59113;51.434;-2.004;2022-08-01T12:10:23;101007.72;;;36.82;28.05
63027;BME280;59113;51.434;-2.004;2022-08-01T12:12:55;100997.28;;;36.07;27.65
63027;BME280;59113;51.434;-2.004;2022-08-01T12:15:24;100993.53;;;32.34;34.15
63027;BME280;59113;51.434;-2.004;2022-08-01T12:17:55;100993.06;;;29.71;37.55
63027;BME280;59113;51.434;-2.004;2022-08-01T12:20:22;100990.84;;;28.91;39.79
63027;BME280;59113;51.434;-2.004;2022-08-01T12:22:54;100975.09;;;29.05;41.16
63027;BME280;59113;51.434;-2.004;2022-08-01T12:25:21;100976.28;;;30.57;38.55
63027;BME280;59113;51.434;-2.004;2022-08-01T12:27:47;100968.44;;;29.20;37.76
63027;BME280;59113;51.434;-2.004;2022-08-01T12:30:15;100955.16;;;30.16;37.70
63027;BME280;59113;51.434;-2.004;2022-08-01T12:32:43;100956.56;;;30.98;36.49
63027;BME280;59113;51.434;-2.004;2022-08-01T12:35:21;100943.81;;;31.54;36.18
63027;BME280;59113;51.434;-2.004;2022-08-01T12:37:52;100957.59;;;32.67;33.32
63027;BME280;59113;51.434;-2.004;2022-08-01T12:42:47;100962.78;;;32.77;33.00
63027;BME280;59113;51.434;-2.004;2022-08-01T12:45:15;100955.78;;;31.89;33.08
63027;BME280;59113;51.434;-2.004;2022-08-01T12:47:42;100959.72;;;31.88;34.57
63027;BME280;59113;51.434;-2.004;2022-08-01T12:50:14;100963.09;;;32.46;32.95
63027;BME280;59113;51.434;-2.004;2022-08-01T12:52:40;100954.13;;;32.32;32.59
63027;BME280;59113;51.434;-2.004;2022-08-01T12:57:33;100946.16;;;31.87;32.45
63027;BME280;59113;51.434;-2.004;2022-08-01T13:00:24;100951.56;;;31.18;33.89
63027;BME280;59113;51.434;-2.004;2022-08-01T13:03:00;100946.28;;;31.47;33.70
63027;BME280;59113;51.434;-2.004;2022-08-01T13:05:27;100945.16;;;31.83;33.22
63027;BME280;59113;51.434;-2.004;2022-08-01T13:07:53;100936.16;;;31.77;32.64
63027;BME280;59113;51.434;-2.004;2022-08-01T13:10:29;100959.00;;;31.57;33.72
63027;BME280;59113;51.434;-2.004;2022-08-01T13:12:58;100949.50;;;30.83;33.67
63027;BME280;59113;51.434;-2.004;2022-08-01T13:15:28;100955.75;;;31.55;33.92
63027;BME280;59113;51.434;-2.004;2022-08-01T13:17:57;100951.31;;;31.28;32.74
63027;BME280;59113;51.434;-2.004;2022-08-01T13:20:25;100944.94;;;30.79;32.98
63027;BME280;59113;51.434;-2.004;2022-08-01T13:22:50;100948.56;;;28.30;37.68
63027;BME280;59113;51.434;-2.004;2022-08-01T13:25:21;100940.41;;;26.54;42.55
63027;BME280;59113;51.434;-2.004;2022-08-01T13:27:46;100946.66;;;27.55;40.44
63027;BME280;59113;51.434;-2.004;2022-08-01T13:30:21;100941.28;;;28.01;41.27
63027;BME280;59113;51.434;-2.004;2022-08-01T13:32:58;100939.13;;;27.42;42.18
63027;BME280;59113;51.434;-2.004;2022-08-01T13:35:28;100940.16;;;28.02;43.36
63027;BME280;59113;51.434;-2.004;2022-08-01T13:37:54;100927.91;;;28.09;43.22
63027;BME280;59113;51.434;-2.004;2022-08-01T13:40:27;100938.28;;;28.63;41.32
63027;BME280;59113;51.434;-2.004;2022-08-01T13:42:53;100933.13;;;28.43;42.57
63027;BME280;59113;51.434;-2.004;2022-08-01T13:45:22;100934.16;;;28.47;42.99
63027;BME280;59113;51.434;-2.004;2022-08-01T13:47:48;100928.94;;;28.73;42.26
63027;BME280;59113;51.434;-2.004;2022-08-01T13:50:14;100933.06;;;28.62;43.25
63027;BME280;59113;51.434;-2.004;2022-08-01T13:52:39;100922.63;;;27.18;45.04
63027;BME280;59113;51.434;-2.004;2022-08-01T13:55:05;100923.78;;;27.12;44.86
63027;BME280;59113;51.434;-2.004;2022-08-01T13:57:34;100925.09;;;27.57;45.97
63027;BME280;59113;51.434;-2.004;2022-08-01T13:59:59;100916.28;;;27.55;46.26
63027;BME280;59113;51.434;-2.004;2022-08-01T14:02:26;100919.56;;;26.96;47.33
63027;BME280;59113;51.434;-2.004;2022-08-01T14:08:25;100916.13;;;27.46;42.85
63027;BME280;59113;51.434;-2.004;2022-08-01T14:10:51;100905.78;;;27.38;43.17
63027;BME280;59113;51.434;-2.004;2022-08-01T14:13:17;100903.97;;;27.47;42.18
63027;BME280;59113;51.434;-2.004;2022-08-01T14:22:26;100892.59;;;27.16;40.01
63027;BME280;59113;51.434;-2.004;2022-08-01T14:24:51;100891.09;;;27.00;39.33
63027;BME280;59113;51.434;-2.004;2022-08-01T14:27:36;100891.53;;;26.64;40.44
63027;BME280;59113;51.434;-2.004;2022-08-01T14:30:05;100877.81;;;26.30;42.48
63027;BME280;59113;51.434;-2.004;2022-08-01T14:32:30;100888.22;;;26.38;43.42
63027;BME280;59113;51.434;-2.004;2022-08-01T14:34:58;100890.00;;;26.24;40.99
63027;BME280;59113;51.434;-2.004;2022-08-01T14:40:27;100886.91;;;26.31;42.61
63027;BME280;59113;51.434;-2.004;2022-08-01T14:42:53;100886.63;;;26.32;43.75
63027;BME280;59113;51.434;-2.004;2022-08-01T14:45:21;100895.16;;;26.31;45.67
63027;BME280;59113;51.434;-2.004;2022-08-01T14:47:47;100881.56;;;26.45;44.35
63027;BME280;59113;51.434;-2.004;2022-08-01T14:50:14;100889.91;;;26.34;45.30
63027;BME280;59113;51.434;-2.004;2022-08-01T14:52:40;100871.19;;;26.31;45.93
63027;BME280;59113;51.434;-2.004;2022-08-01T14:55:08;100875.06;;;26.30;46.60
63027;BME280;59113;51.434;-2.004;2022-08-01T14:57:35;100882.19;;;26.31;46.11
63027;BME280;59113;51.434;-2.004;2022-08-01T15:00:00;100872.59;;;26.29;46.76
63027;BME280;59113;51.434;-2.004;2022-08-01T15:02:26;100887.59;;;26.18;48.41
63027;BME280;59113;51.434;-2.004;2022-08-01T15:04:51;100880.16;;;26.18;47.07
63027;BME280;59113;51.434;-2.004;2022-08-01T15:07:21;100878.50;;;26.17;46.70
63027;BME280;59113;51.434;-2.004;2022-08-01T15:09:46;100873.56;;;26.14;47.20
63027;BME280;59113;51.434;-2.004;2022-08-01T15:12:12;100872.72;;;26.19;45.42
63027;BME280;59113;51.434;-2.004;2022-08-01T15:14:38;100866.97;;;26.15;46.18
63027;BME280;59113;51.434;-2.004;2022-08-01T15:17:24;100871.63;;;26.15;45.85
63027;BME280;59113;51.434;-2.004;2022-08-01T15:19:52;100875.75;;;26.17;44.50
63027;BME280;59113;51.434;-2.004;2022-08-01T15:22:18;100865.66;;;26.07;44.25
63027;BME280;59113;51.434;-2.004;2022-08-01T15:24:44;100874.25;;;25.62;42.87
63027;BME280;59113;51.434;-2.004;2022-08-01T15:27:30;100869.75;;;25.37;39.98
63027;BME280;59113;51.434;-2.004;2022-08-01T15:29:55;100862.69;;;25.25;40.59
63027;BME280;59113;51.434;-2.004;2022-08-01T15:32:21;100866.41;;;25.45;41.43
63027;BME280;59113;51.434;-2.004;2022-08-01T15:34:50;100862.22;;;25.58;41.08
63027;BME280;59113;51.434;-2.004;2022-08-01T15:40:38;100856.34;;;25.64;42.34
63027;BME280;59113;51.434;-2.004;2022-08-01T15:43:06;100847.78;;;25.76;43.91
63027;BME280;59113;51.434;-2.004;2022-08-01T15:48:54;100844.72;;;25.77;46.32
63027;BME280;59113;51.434;-2.004;2022-08-01T15:51:19;100852.47;;;25.75;46.43
63027;BME280;59113;51.434;-2.004;2022-08-01T15:53:45;100847.56;;;25.62;47.78
63027;BME280;59113;51.434;-2.004;2022-08-01T15:59:35;100841.66;;;25.45;45.54
63027;BME280;59113;51.434;-2.004;2022-08-01T16:02:02;100844.38;;;25.50;44.99
63027;BME280;59113;51.434;-2.004;2022-08-01T16:04:27;100844.53;;;25.64;44.00
63027;BME280;59113;51.434;-2.004;2022-08-01T16:13:52;100840.25;;;25.47;45.23
63027;BME280;59113;51.434;-2.004;2022-08-01T16:19:39;100828.00;;;25.30;44.55
63027;BME280;59113;51.434;-2.004;2022-08-01T16:22:05;100835.22;;;25.20;43.78
63027;BME280;59113;51.434;-2.004;2022-08-01T16:24:33;100832.44;;;25.25;43.97
63027;BME280;59113;51.434;-2.004;2022-08-01T16:30:03;100831.44;;;25.11;44.88
63027;BME280;59113;51.434;-2.004;2022-08-01T16:32:29;100826.44;;;25.18;46.78
63027;BME280;59113;51.434;-2.004;2022-08-01T16:34:54;100837.91;;;25.31;47.62
63027;BME280;59113;51.434;-2.004;2022-08-01T16:40:41;100834.09;;;25.21;49.56
63027;BME280;59113;51.434;-2.004;2022-08-01T16:43:08;100834.97;;;25.17;51.21
63027;BME280;59113;51.434;-2.004;2022-08-01T16:49:02;100843.03;;;25.03;55.59
63027;BME280;59113;51.434;-2.004;2022-08-01T16:51:28;100831.19;;;25.03;56.76
63027;BME280;59113;51.434;-2.004;2022-08-01T16:53:53;100831.44;;;25.11;57.50
63027;BME280;59113;51.434;-2.004;2022-08-01T16:59:40;100828.38;;;25.13;58.07
63027;BME280;59113;51.434;-2.004;2022-08-01T17:02:06;100818.22;;;25.13;58.63
63027;BME280;59113;51.434;-2.004;2022-08-01T17:04:32;100827.00;;;25.15;57.70
63027;BME280;59113;51.434;-2.004;2022-08-01T17:07:00;100824.28;;;25.15;58.53
63027;BME280;59113;51.434;-2.004;2022-08-01T17:09:26;100816.03;;;25.15;58.58
63027;BME280;59113;51.434;-2.004;2022-08-01T17:11:51;100820.59;;;24.81;57.37
63027;BME280;59113;51.434;-2.004;2022-08-01T17:14:17;100821.56;;;25.05;58.38
63027;BME280;59113;51.434;-2.004;2022-08-01T17:20:04;100820.59;;;24.81;58.37
63027;BME280;59113;51.434;-2.004;2022-08-01T17:22:30;100813.63;;;24.98;59.16
63027;BME280;59113;51.434;-2.004;2022-08-01T17:24:55;100805.88;;;25.11;59.68
63027;BME280;59113;51.434;-2.004;2022-08-01T17:30:43;100815.19;;;25.15;59.74
63027;BME280;59113;51.434;-2.004;2022-08-01T17:33:08;100809.47;;;25.06;60.45
63027;BME280;59113;51.434;-2.004;2022-08-01T17:38:56;100806.78;;;24.91;60.83
63027;BME280;59113;51.434;-2.004;2022-08-01T17:41:23;100805.41;;;24.88;62.16
63027;BME280;59113;51.434;-2.004;2022-08-01T17:43:48;100793.94;;;24.81;61.20
63027;BME280;59113;51.434;-2.004;2022-08-01T17:49:36;100805.75;;;24.71;62.18
63027;BME280;59113;51.434;-2.004;2022-08-01T17:52:03;100786.81;;;24.75;61.94
63027;BME280;59113;51.434;-2.004;2022-08-01T17:54:28;100788.97;;;24.78;62.61
63027;BME280;59113;51.434;-2.004;2022-08-01T17:57:21;100789.19;;;24.92;62.57
63027;BME280;59113;51.434;-2.004;2022-08-01T17:59:46;100790.53;;;24.94;62.92
63027;BME280;59113;51.434;-2.004;2022-08-01T18:02:12;100785.34;;;24.93;62.62
63027;BME280;59113;51.434;-2.004;2022-08-01T18:04:38;100792.16;;;25.01;63.25
63027;BME280;59113;51.434;-2.004;2022-08-01T18:10:09;100794.63;;;25.02;63.87
63027;BME280;59113;51.434;-2.004;2022-08-01T18:12:34;100788.06;;;24.98;64.92
63027;BME280;59113;51.434;-2.004;2022-08-01T18:15:00;100789.97;;;25.03;65.11
63027;BME280;59113;51.434;-2.004;2022-08-01T18:20:52;100788.66;;;24.90;66.19
63027;BME280;59113;51.434;-2.004;2022-08-01T18:23:18;100794.16;;;24.85;67.42
63027;BME280;59113;51.434;-2.004;2022-08-01T18:29:10;100806.91;;;24.65;77.27
63027;BME280;59113;51.434;-2.004;2022-08-01T18:31:35;100822.31;;;24.61;84.84
63027;BME280;59113;51.434;-2.004;2022-08-01T18:34:01;100809.72;;;24.55;88.02
63027;BME280;59113;51.434;-2.004;2022-08-01T18:36:47;100815.78;;;24.47;92.73
63027;BME280;59113;51.434;-2.004;2022-08-01T18:39:13;100819.09;;;24.39;94.26
63027;BME280;59113;51.434;-2.004;2022-08-01T18:41:38;100826.25;;;24.20;97.69
63027;BME280;59113;51.434;-2.004;2022-08-01T18:44:05;100821.59;;;24.10;99.57
63027;BME280;59113;51.434;-2.004;2022-08-01T18:46:31;100822.44;;;24.00;100.00
63027;BME280;59113;51.434;-2.004;2022-08-01T18:48:56;100819.97;;;23.94;100.00
63027;BME280;59113;51.434;-2.004;2022-08-01T18:51:22;100812.59;;;23.69;100.00
63027;BME280;59113;51.434;-2.004;2022-08-01T18:53:48;100812.63;;;23.64;100.00
63027;BME280;59113;51.434;-2.004;2022-08-01T18:56:21;100827.41;;;23.68;100.00
63027;BME280;59113;51.434;-2.004;2022-08-01T18:58:46;100818.63;;;23.61;100.00
63027;BME280;59113;51.434;-2.004;2022-08-01T19:01:12;100830.69;;;23.59;100.00
63027;BME280;59113;51.434;-2.004;2022-08-01T19:03:38;100829.31;;;23.57;100.00
63027;BME280;59113;51.434;-2.004;2022-08-01T19:06:09;100832.31;;;23.50;100.00
63027;BME280;59113;51.434;-2.004;2022-08-01T19:08:35;100830.09;;;23.37;100.00
63027;BME280;59113;51.434;-2.004;2022-08-01T19:11:02;100833.38;;;23.34;100.00
63027;BME280;59113;51.434;-2.004;2022-08-01T19:13:28;100833.91;;;23.26;100.00
63027;BME280;59113;51.434;-2.004;2022-08-01T19:19:17;100832.19;;;22.94;100.00
63027;BME280;59113;51.434;-2.004;2022-08-01T19:21:44;100840.69;;;22.93;100.00
63027;BME280;59113;51.434;-2.004;2022-08-01T19:24:09;100837.13;;;22.87;100.00
63027;BME280;59113;51.434;-2.004;2022-08-01T19:27:00;100842.81;;;22.81;100.00
63027;BME280;59113;51.434;-2.004;2022-08-01T19:29:32;100829.06;;;22.65;100.00
63027;BME280;59113;51.434;-2.004;2022-08-01T19:31:59;100838.88;;;22.61;100.00
63027;BME280;59113;51.434;-2.004;2022-08-01T19:34:26;100834.72;;;22.48;100.00
63027;BME280;59113;51.434;-2.004;2022-08-01T19:43:44;100844.38;;;22.14;100.00
63027;BME280;59113;51.434;-2.004;2022-08-01T19:49:46;100853.00;;;21.96;100.00
63027;BME280;59113;51.434;-2.004;2022-08-01T19:52:12;100852.59;;;21.82;100.00
63027;BME280;59113;51.434;-2.004;2022-08-01T19:54:43;100857.78;;;21.78;100.00
63027;BME280;59113;51.434;-2.004;2022-08-01T20:00:39;100849.94;;;21.60;100.00
63027;BME280;59113;51.434;-2.004;2022-08-01T20:03:06;100859.44;;;21.52;100.00
63027;BME280;59113;51.434;-2.004;2022-08-01T20:09:06;100845.06;;;21.35;100.00
63027;BME280;59113;51.434;-2.004;2022-08-01T20:11:33;100861.72;;;21.33;100.00
63027;BME280;59113;51.434;-2.004;2022-08-01T20:13:58;100849.66;;;21.29;100.00
63027;BME280;59113;51.434;-2.004;2022-08-01T20:19:53;100846.44;;;21.11;100.00
63027;BME280;59113;51.434;-2.004;2022-08-01T20:22:23;100855.38;;;21.06;100.00
63027;BME280;59113;51.434;-2.004;2022-08-01T20:24:57;100851.50;;;21.02;100.00
63027;BME280;59113;51.434;-2.004;2022-08-01T20:30:45;100866.19;;;20.74;100.00
63027;BME280;59113;51.434;-2.004;2022-08-01T21:01:29;100904.84;;;19.77;100.00
63027;BME280;59113;51.434;-2.004;2022-08-01T21:12:27;100888.13;;;19.73;100.00
63027;BME280;59113;51.434;-2.004;2022-08-01T21:27:39;100886.63;;;19.37;100.00
